< < Back
Terminal Aerodrome Forecast


Current Version              Previous Versions:   1  2  3  4  5  6  7  8  9  

Terminal Aerodrome Forecast

056
FTUS42 KJAX 191720
TAFSSI
TAF
KSSI 191720Z 1918/2018 16007G14KT P6SM VCTS FEW030CB SCT100 BKN250
      TEMPO 1918/1922 3SM -TSRA SCT025 BKN050CB
     FM192200 24008KT P6SM VCTS FEW025CB OVC050
      TEMPO 1922/1924 5SM -TSRA SCT025CB BKN050
     FM200000 18006KT 5SM -RA BR BKN020 OVC100
     FM200400 18006KT P6SM OVC015
     FM200800 21006KT P6SM OVC005
     FM201300 24008KT P6SM OVC250=

Latest METAR

124
SAUS70 KWBC 191900 RRQ
MTRSSI
METAR KSSI 191853Z AUTO 16011KT 10SM CLR 24/22 A2985 RMK AO2 LTG DSNT NW
SLP107 T02440217


USA.gov is the U.S. government's official web portal to all federal, state and local government web resources and services.